createdAt,value
2018-07-22T00:01:17.531Z,13.40
2018-07-22T00:03:45.896Z,15.10
2018-07-22T00:06:14.289Z,14.30
2018-07-22T00:08:42.671Z,13.03
2018-07-22T00:11:11.630Z,14.07
2018-07-22T00:13:39.981Z,14.20
2018-07-22T00:16:08.376Z,12.57
2018-07-22T00:18:36.751Z,13.37
2018-07-22T00:21:05.805Z,13.80
2018-07-22T00:23:34.266Z,12.10
2018-07-22T00:26:02.719Z,14.10
2018-07-22T00:28:31.181Z,13.47
2018-07-22T00:30:59.529Z,13.63
2018-07-22T00:33:28.013Z,13.50
2018-07-22T00:35:57.125Z,13.80
2018-07-22T00:38:25.509Z,13.90
2018-07-22T00:40:53.896Z,15.00
2018-07-22T00:43:22.388Z,13.60
2018-07-22T00:45:50.842Z,13.90
2018-07-22T00:48:19.222Z,13.97
2018-07-22T00:50:47.598Z,13.27
2018-07-22T00:53:15.974Z,12.57
2018-07-22T00:55:44.451Z,12.50
2018-07-22T00:58:12.873Z,12.43
2018-07-22T01:00:41.267Z,13.60
2018-07-22T01:03:09.665Z,12.67
2018-07-22T01:05:38.174Z,13.73
2018-07-22T01:08:06.507Z,13.07
2018-07-22T01:10:34.949Z,12.30
2018-07-22T01:13:03.345Z,13.37
2018-07-22T01:15:31.824Z,13.13
2018-07-22T01:18:00.286Z,13.03
2018-07-22T01:20:28.626Z,14.10
2018-07-22T01:22:56.984Z,15.30
2018-07-22T01:25:25.550Z,14.50
2018-07-22T01:27:54.039Z,14.03
2018-07-22T01:30:22.056Z,14.20
2018-07-22T01:32:50.590Z,14.07
2018-07-22T01:35:19.036Z,15.53
2018-07-22T01:37:47.471Z,15.40
2018-07-22T01:40:15.872Z,14.20
2018-07-22T01:42:44.494Z,14.17
2018-07-22T01:45:12.856Z,14.50
2018-07-22T01:47:41.216Z,14.93
2018-07-22T01:50:09.682Z,17.27
2018-07-22T01:52:38.065Z,16.00
2018-07-22T01:55:06.501Z,14.00
2018-07-22T01:57:34.944Z,15.33
2018-07-22T02:00:03.489Z,14.80
2018-07-22T02:02:31.858Z,15.40
2018-07-22T02:05:00.245Z,16.27
2018-07-22T02:07:28.617Z,15.67
2018-07-22T02:09:57.318Z,16.27
2018-07-22T02:12:25.649Z,15.20
2018-07-22T02:14:54.028Z,15.97
2018-07-22T02:17:22.450Z,16.13
2018-07-22T02:19:50.851Z,16.13
2018-07-22T02:22:19.276Z,19.53
2018-07-22T02:24:47.625Z,17.53
2018-07-22T02:27:16.002Z,17.87
2018-07-22T02:29:44.417Z,18.80
2018-07-22T02:32:13.375Z,19.53
2018-07-22T02:34:41.733Z,18.63
2018-07-22T02:37:10.167Z,19.20
2018-07-22T02:39:38.605Z,18.93
2018-07-22T02:42:07.012Z,19.40
2018-07-22T02:44:35.465Z,18.83
2018-07-22T02:47:03.869Z,19.87
2018-07-22T02:49:32.236Z,20.00
2018-07-22T02:52:00.653Z,20.50
2018-07-22T02:54:29.099Z,21.00
2018-07-22T02:56:57.547Z,20.37
2018-07-22T02:59:26.027Z,20.80
2018-07-22T03:01:54.465Z,20.83
2018-07-22T03:04:22.852Z,21.37
2018-07-22T03:06:51.320Z,20.93
2018-07-22T03:09:19.710Z,22.27
2018-07-22T03:11:48.048Z,21.13
2018-07-22T03:14:16.432Z,21.77
2018-07-22T03:16:44.883Z,22.00
2018-07-22T03:19:13.243Z,20.70
2018-07-22T03:21:41.707Z,21.03
2018-07-22T03:24:10.093Z,22.23
2018-07-22T03:26:38.522Z,23.17
2018-07-22T03:29:06.926Z,22.73
2018-07-22T03:31:35.285Z,21.37
2018-07-22T03:34:03.695Z,21.17
2018-07-22T03:36:32.133Z,21.07
2018-07-22T03:39:00.524Z,23.67
2018-07-22T03:41:28.884Z,21.30
2018-07-22T03:43:57.284Z,20.60
2018-07-22T03:46:25.671Z,22.10
2018-07-22T03:48:54.200Z,21.97
2018-07-22T03:51:22.600Z,19.80
2018-07-22T03:53:50.931Z,20.70
2018-07-22T03:56:19.394Z,22.30
2018-07-22T03:58:47.771Z,22.30
2018-07-22T04:01:16.227Z,20.60
2018-07-22T04:03:44.608Z,21.40
2018-07-22T04:06:13.175Z,20.80
2018-07-22T04:08:41.575Z,20.80
2018-07-22T04:11:09.893Z,22.07
2018-07-22T04:13:38.342Z,21.50
2018-07-22T04:16:06.793Z,21.10
2018-07-22T04:18:39.391Z,20.33
2018-07-22T04:21:07.819Z,20.97
2018-07-22T04:23:36.238Z,21.97
2018-07-22T04:26:04.614Z,20.93
2018-07-22T04:28:33.049Z,20.20
2018-07-22T04:31:01.453Z,20.43
2018-07-22T04:33:29.886Z,20.73
2018-07-22T04:35:58.269Z,20.97
2018-07-22T04:38:26.743Z,21.33
2018-07-22T04:40:55.245Z,22.00
2018-07-22T04:43:23.813Z,21.80
2018-07-22T04:45:52.205Z,21.53
2018-07-22T04:48:21.353Z,21.53
2018-07-22T04:50:49.743Z,22.50
2018-07-22T04:53:18.981Z,22.70
2018-07-22T04:55:47.346Z,22.17
2018-07-22T04:58:15.665Z,21.93
2018-07-22T05:00:44.098Z,22.93
2018-07-22T05:03:12.536Z,22.00
2018-07-22T05:05:40.961Z,21.47
2018-07-22T05:08:09.360Z,22.77
2018-07-22T05:10:38.488Z,23.63
2018-07-22T05:13:06.836Z,22.03
2018-07-22T05:15:35.219Z,21.73
2018-07-22T05:18:03.632Z,22.20
2018-07-22T05:20:31.977Z,21.57
2018-07-22T05:23:00.462Z,19.80
2018-07-22T05:25:28.907Z,21.67
2018-07-22T05:27:57.274Z,20.97
2018-07-22T05:30:25.653Z,21.50
2018-07-22T05:32:53.750Z,19.40
2018-07-22T05:35:22.149Z,18.47
2018-07-22T05:37:50.552Z,20.43
2018-07-22T05:40:19.038Z,19.17
2018-07-22T05:42:47.378Z,19.37
2018-07-22T05:45:15.749Z,18.37
2018-07-22T05:47:44.243Z,18.80
2018-07-22T05:50:12.681Z,18.90
2018-07-22T05:52:41.124Z,19.33
2018-07-22T05:55:09.493Z,20.10
2018-07-22T05:57:37.914Z,18.30
2018-07-22T06:00:07.146Z,17.30
2018-07-22T06:02:35.540Z,17.40
2018-07-22T06:05:03.927Z,17.70
2018-07-22T06:07:32.326Z,16.40
2018-07-22T06:10:00.826Z,15.20
2018-07-22T06:12:29.317Z,14.90
2018-07-22T06:14:57.741Z,13.37
2018-07-22T06:17:26.139Z,12.10
2018-07-22T06:19:54.211Z,14.20
2018-07-22T06:22:22.575Z,12.77
2018-07-22T06:24:50.998Z,12.70
2018-07-22T06:27:19.400Z,11.60
2018-07-22T06:29:48.486Z,11.60
2018-07-22T06:32:16.870Z,11.13
2018-07-22T06:34:45.441Z,10.50
2018-07-22T06:37:13.838Z,9.70
2018-07-22T06:39:42.239Z,9.93
2018-07-22T06:42:10.748Z,10.17
2018-07-22T06:44:39.202Z,9.70
2018-07-22T06:47:07.581Z,8.57
2018-07-22T06:49:36.035Z,8.83
2018-07-22T06:52:04.506Z,10.00
2018-07-22T06:54:32.907Z,8.67
2018-07-22T06:57:01.440Z,8.93
2018-07-22T06:59:29.723Z,7.70
2018-07-22T07:01:58.094Z,8.90
2018-07-22T07:04:26.457Z,7.80
2018-07-22T07:06:54.843Z,7.57
2018-07-22T07:09:23.197Z,8.50
2018-07-22T07:11:51.632Z,7.23
2018-07-22T07:14:20.055Z,8.00
2018-07-22T07:16:48.495Z,7.73
2018-07-22T07:19:16.905Z,7.40
2018-07-22T07:21:45.341Z,8.43
2018-07-22T07:24:13.795Z,9.10
2018-07-22T07:26:42.739Z,9.20
2018-07-22T07:29:11.145Z,9.10
2018-07-22T07:31:40.327Z,9.47
2018-07-22T07:34:09.100Z,9.17
2018-07-22T07:36:37.489Z,10.03
2018-07-22T07:39:08.702Z,10.50
2018-07-22T07:41:37.367Z,10.50
2018-07-22T07:44:06.093Z,10.90
2018-07-22T07:46:34.526Z,11.90
2018-07-22T07:49:02.948Z,12.60
2018-07-22T07:51:31.584Z,14.03
2018-07-22T07:53:59.938Z,15.13
2018-07-22T07:56:28.302Z,15.60
2018-07-22T07:58:56.897Z,16.77
2018-07-22T08:01:25.340Z,17.50
2018-07-22T08:03:53.769Z,18.03
2018-07-22T08:06:22.197Z,18.40
2018-07-22T08:08:50.624Z,17.70
2018-07-22T08:11:19.033Z,17.37
2018-07-22T08:13:47.082Z,17.93
2018-07-22T08:16:15.568Z,15.83
2018-07-22T08:18:43.993Z,15.67
2018-07-22T08:21:12.438Z,17.07
2018-07-22T08:23:41.084Z,17.33
2018-07-22T08:26:09.737Z,16.40
2018-07-22T08:28:49.519Z,18.27
2018-07-22T08:31:17.936Z,17.07
2018-07-22T08:33:46.619Z,17.67
2018-07-22T08:36:15.057Z,16.57
2018-07-22T08:38:43.494Z,18.87
2018-07-22T08:41:11.902Z,16.70
2018-07-22T08:43:40.299Z,19.27
2018-07-22T08:46:08.673Z,19.03
2018-07-22T08:48:37.053Z,19.40
2018-07-22T08:51:05.473Z,18.10
2018-07-22T08:53:33.995Z,18.63
2018-07-22T08:56:02.465Z,18.77
2018-07-22T08:58:30.957Z,19.13
2018-07-22T09:00:59.415Z,19.63
2018-07-22T09:03:28.287Z,20.00
2018-07-22T09:05:56.767Z,20.80
2018-07-22T09:08:25.106Z,19.53
2018-07-22T09:10:53.502Z,18.27
2018-07-22T09:13:21.868Z,17.17
2018-07-22T09:15:50.245Z,16.70
2018-07-22T09:18:18.725Z,17.50
2018-07-22T09:20:47.139Z,15.80
2018-07-22T09:23:15.569Z,15.60
2018-07-22T09:25:43.925Z,15.00
2018-07-22T09:28:12.431Z,16.43
2018-07-22T09:30:40.833Z,15.40
2018-07-22T09:33:09.289Z,11.87
2018-07-22T09:35:37.723Z,11.70
2018-07-22T09:38:06.102Z,9.37
2018-07-22T09:40:34.196Z,10.40
2018-07-22T09:43:03.157Z,12.10
2018-07-22T09:45:31.700Z,11.40
2018-07-22T09:48:00.191Z,12.90
2018-07-22T09:50:28.627Z,14.10
2018-07-22T09:52:57.038Z,16.07
2018-07-22T09:55:25.089Z,16.03
2018-07-22T09:57:53.591Z,17.47
2018-07-22T10:00:27.333Z,16.97
2018-07-22T10:02:55.811Z,17.80
2018-07-22T10:05:24.562Z,17.77
2018-07-22T10:07:53.109Z,19.13
2018-07-22T10:10:21.853Z,18.83
2018-07-22T10:12:50.295Z,18.00
2018-07-22T10:15:18.756Z,19.13
2018-07-22T10:17:47.157Z,19.00
2018-07-22T10:20:15.590Z,20.03
2018-07-22T10:22:44.077Z,21.20
2018-07-22T10:25:12.634Z,19.93
2018-07-22T10:27:41.376Z,18.93
2018-07-22T10:30:10.032Z,18.43
2018-07-22T10:32:38.407Z,20.00
2018-07-22T10:35:06.844Z,20.63
2018-07-22T10:37:35.204Z,20.00
2018-07-22T10:40:03.598Z,20.80
2018-07-22T10:42:31.984Z,20.97
2018-07-22T10:45:00.389Z,21.20
2018-07-22T10:47:28.824Z,23.00
2018-07-22T10:49:57.229Z,19.23
2018-07-22T10:52:25.700Z,18.03
2018-07-22T10:54:54.093Z,13.00
2018-07-22T10:57:22.576Z,10.50
2018-07-22T10:59:51.018Z,11.30
2018-07-22T11:02:19.536Z,9.37
2018-07-22T11:04:47.886Z,12.60
2018-07-22T11:07:17.231Z,11.77
2018-07-22T11:09:45.637Z,14.43
2018-07-22T11:12:14.070Z,12.90
2018-07-22T11:14:42.506Z,13.47
2018-07-22T11:17:10.909Z,14.20
2018-07-22T11:19:39.445Z,14.60
2018-07-22T11:22:08.080Z,13.33
2018-07-22T11:24:36.628Z,14.83
2018-07-22T11:27:05.088Z,15.70
2018-07-22T11:29:33.496Z,18.90
2018-07-22T11:32:01.856Z,17.17
2018-07-22T11:34:30.242Z,14.80
2018-07-22T11:36:58.658Z,15.07
2018-07-22T11:39:27.096Z,12.17
2018-07-22T11:41:55.560Z,9.83
2018-07-22T11:44:23.957Z,8.80
2018-07-22T11:46:52.473Z,10.40
2018-07-22T11:49:20.953Z,9.67
2018-07-22T11:51:49.373Z,9.87
2018-07-22T11:54:18.048Z,10.50
2018-07-22T11:56:46.381Z,10.50
2018-07-22T11:59:14.773Z,8.83
2018-07-22T12:01:43.179Z,8.20
2018-07-22T12:04:11.680Z,9.30
2018-07-22T12:06:40.067Z,9.77
2018-07-22T12:09:10.240Z,9.20
2018-07-22T12:11:38.869Z,9.50
2018-07-22T12:14:07.325Z,10.80
2018-07-22T12:16:35.731Z,11.77
2018-07-22T12:19:04.174Z,11.20
2018-07-22T12:21:32.647Z,11.27
2018-07-22T12:24:01.071Z,10.23
2018-07-22T12:26:29.470Z,10.03
2018-07-22T12:28:57.888Z,10.53
2018-07-22T12:31:26.397Z,11.43
2018-07-22T12:33:54.908Z,12.20
2018-07-22T12:36:23.356Z,12.60
2018-07-22T12:38:51.824Z,14.23
2018-07-22T12:41:20.358Z,12.77
2018-07-22T12:43:48.876Z,14.40
2018-07-22T12:46:17.335Z,13.67
2018-07-22T12:48:45.717Z,10.80
2018-07-22T12:51:14.121Z,12.50
2018-07-22T12:53:42.624Z,11.17
2018-07-22T12:56:11.031Z,11.23
2018-07-22T12:58:39.584Z,11.70
2018-07-22T13:01:07.959Z,10.00
2018-07-22T13:03:36.352Z,10.70
2018-07-22T13:06:04.813Z,10.90
2018-07-22T13:08:33.237Z,10.00
2018-07-22T13:11:01.623Z,10.23
2018-07-22T13:13:30.118Z,10.17
2018-07-22T13:15:58.498Z,10.40
2018-07-22T13:18:26.829Z,12.03
2018-07-22T13:20:56.098Z,12.50
2018-07-22T13:23:24.569Z,11.97
2018-07-22T13:25:53.039Z,12.07
2018-07-22T13:28:21.573Z,11.07
2018-07-22T13:30:49.917Z,12.10
2018-07-22T13:33:18.475Z,10.83
2018-07-22T13:35:46.808Z,10.77
2018-07-22T13:38:15.246Z,13.07
2018-07-22T13:40:43.576Z,12.53
2018-07-22T13:43:11.964Z,13.50
2018-07-22T13:45:41.097Z,13.10
2018-07-22T13:48:09.498Z,14.13
2018-07-22T13:50:38.259Z,12.37
2018-07-22T13:53:06.712Z,12.63
2018-07-22T13:55:36.134Z,13.30
2018-07-22T13:58:04.537Z,12.73
2018-07-22T14:00:32.969Z,13.70
2018-07-22T14:03:01.390Z,14.10
2018-07-22T14:05:29.797Z,13.60
2018-07-22T14:07:58.306Z,15.43
2018-07-22T14:10:26.732Z,15.20
2018-07-22T14:12:55.201Z,15.67
2018-07-22T14:15:23.607Z,13.70
2018-07-22T14:17:52.090Z,12.90
2018-07-22T14:20:20.625Z,12.47
2018-07-22T14:22:49.081Z,13.30
2018-07-22T14:25:17.501Z,13.50
2018-07-22T14:27:45.896Z,12.93
2018-07-22T14:30:14.268Z,14.17
2018-07-22T14:32:43.235Z,13.90
2018-07-22T14:35:11.745Z,14.23
2018-07-22T14:37:40.073Z,16.13
2018-07-22T14:40:08.473Z,16.07
2018-07-22T14:42:36.949Z,16.90
2018-07-22T14:45:06.368Z,16.00
2018-07-22T14:47:34.711Z,14.57
2018-07-22T14:50:03.125Z,17.07
2018-07-22T14:52:31.613Z,15.07
2018-07-22T14:55:00.047Z,15.50
2018-07-22T14:57:28.388Z,14.37
2018-07-22T14:59:56.744Z,14.20
2018-07-22T15:02:25.231Z,13.97
2018-07-22T15:04:53.666Z,13.57
2018-07-22T15:07:23.668Z,11.60
2018-07-22T15:09:52.552Z,11.80
2018-07-22T15:12:21.054Z,11.43
2018-07-22T15:14:49.513Z,12.00
2018-07-22T15:17:17.857Z,13.30
2018-07-22T15:19:46.289Z,11.70
2018-07-22T15:22:14.838Z,12.33
2018-07-22T15:24:43.492Z,13.40
2018-07-22T15:27:11.930Z,13.70
2018-07-22T15:29:40.376Z,15.07
2018-07-22T15:32:08.740Z,15.23
2018-07-22T15:34:37.176Z,15.70
2018-07-22T15:37:06.521Z,14.63
2018-07-22T15:39:34.979Z,16.87
2018-07-22T15:42:03.429Z,15.00
2018-07-22T15:44:31.832Z,15.40
2018-07-22T15:47:00.189Z,16.30
2018-07-22T15:49:28.562Z,16.10
2018-07-22T15:51:56.867Z,16.60
2018-07-22T15:54:25.247Z,18.07
2018-07-22T15:56:53.642Z,16.33
2018-07-22T15:59:22.049Z,17.77
2018-07-22T16:01:50.416Z,16.73
2018-07-22T16:04:18.826Z,14.33
2018-07-22T16:06:47.147Z,14.70
2018-07-22T16:09:15.604Z,15.37
2018-07-22T16:11:44.015Z,16.20
2018-07-22T16:14:12.518Z,15.70
2018-07-22T16:16:40.880Z,14.40
2018-07-22T16:19:09.278Z,14.93
2018-07-22T16:21:37.692Z,15.43
2018-07-22T16:24:06.057Z,14.23
2018-07-22T16:26:34.537Z,15.17
2018-07-22T16:29:02.871Z,15.00
2018-07-22T16:31:31.263Z,14.90
2018-07-22T16:33:59.674Z,15.20
2018-07-22T16:36:28.195Z,17.13
2018-07-22T16:38:56.529Z,19.20
2018-07-22T16:41:24.863Z,17.50
2018-07-22T16:43:53.295Z,18.27
2018-07-22T16:46:21.867Z,19.50
2018-07-22T16:48:50.386Z,20.80
2018-07-22T16:51:18.847Z,23.37
2018-07-22T16:53:47.303Z,20.60
2018-07-22T16:56:15.612Z,19.23
2018-07-22T16:58:44.045Z,21.67
2018-07-22T17:01:12.456Z,18.73
2018-07-22T17:03:40.894Z,21.13
2018-07-22T17:06:09.278Z,20.80
2018-07-22T17:08:37.608Z,25.73
2018-07-22T17:11:06.010Z,21.10
2018-07-22T17:13:34.390Z,19.93
2018-07-22T17:16:03.086Z,19.60
2018-07-22T17:18:31.541Z,19.47
2018-07-22T17:20:59.840Z,18.70
2018-07-22T17:23:28.305Z,18.63
2018-07-22T17:25:56.719Z,19.50
2018-07-22T17:28:25.123Z,18.40
2018-07-22T17:30:53.487Z,19.73
2018-07-22T17:33:21.907Z,17.50
2018-07-22T17:35:50.401Z,18.60
2018-07-22T17:38:18.888Z,20.00
2018-07-22T17:40:47.335Z,17.53
2018-07-22T17:43:15.759Z,18.30
2018-07-22T17:45:44.148Z,19.03
2018-07-22T17:48:12.550Z,18.83
2018-07-22T17:50:40.961Z,19.67
2018-07-22T17:53:09.309Z,18.07
2018-07-22T17:55:37.695Z,18.63
2018-07-22T17:58:06.197Z,17.90
2018-07-22T18:00:34.640Z,17.10
2018-07-22T18:03:15.019Z,19.27
2018-07-22T18:05:43.399Z,19.73
2018-07-22T18:08:11.789Z,20.70
2018-07-22T18:10:40.151Z,20.53
2018-07-22T18:13:08.600Z,18.60
2018-07-22T18:15:36.944Z,19.20
2018-07-22T18:18:05.577Z,19.07
2018-07-22T18:20:34.216Z,18.30
2018-07-22T18:23:02.602Z,17.77
2018-07-22T18:25:31.188Z,18.27
2018-07-22T18:27:59.788Z,18.23
2018-07-22T18:30:28.462Z,18.60
2018-07-22T18:32:57.023Z,18.53
2018-07-22T18:35:25.729Z,18.40
2018-07-22T18:37:54.174Z,18.00
2018-07-22T18:40:23.173Z,18.53
2018-07-22T18:42:51.855Z,18.67
2018-07-22T18:45:20.223Z,19.93
2018-07-22T18:47:48.616Z,18.03
2018-07-22T18:50:17.100Z,21.13
2018-07-22T18:52:45.836Z,20.17
2018-07-22T18:55:14.179Z,21.53
2018-07-22T18:57:42.526Z,18.57
2018-07-22T19:00:11.021Z,19.10
2018-07-22T19:02:39.462Z,18.63
2018-07-22T19:05:08.283Z,19.57
2018-07-22T19:07:36.877Z,22.00
2018-07-22T19:10:05.851Z,18.13
2018-07-22T19:12:34.241Z,18.83
2018-07-22T19:15:02.641Z,17.80
2018-07-22T19:17:31.007Z,17.30
2018-07-22T19:19:59.434Z,18.97
2018-07-22T19:22:27.808Z,18.90
2018-07-22T19:24:56.193Z,18.67
2018-07-22T19:27:24.665Z,18.37
2018-07-22T19:29:52.992Z,18.80
2018-07-22T19:32:21.348Z,20.17
2018-07-22T19:34:49.815Z,22.43
2018-07-22T19:37:18.169Z,21.00
2018-07-22T19:39:46.654Z,19.90
2018-07-22T19:42:15.166Z,19.83
2018-07-22T19:44:43.707Z,19.30
2018-07-22T19:47:12.132Z,18.43
2018-07-22T19:49:40.693Z,18.30
2018-07-22T19:52:09.137Z,17.50
2018-07-22T19:54:37.564Z,17.20
2018-07-22T19:57:06.169Z,16.97
2018-07-22T19:59:34.448Z,17.23
2018-07-22T20:02:02.928Z,17.50
2018-07-22T20:04:31.267Z,18.03
2018-07-22T20:06:59.855Z,17.03
2018-07-22T20:09:28.218Z,18.50
2018-07-22T20:11:56.642Z,18.70
2018-07-22T20:14:25.066Z,18.83
2018-07-22T20:16:53.566Z,18.10
2018-07-22T20:19:22.163Z,18.77
2018-07-22T20:21:50.536Z,18.17
2018-07-22T20:24:19.094Z,18.73
2018-07-22T20:26:47.534Z,18.23
2018-07-22T20:29:15.942Z,19.53
2018-07-22T20:31:45.055Z,18.20
2018-07-22T20:34:13.350Z,16.53
2018-07-22T20:36:41.840Z,16.67
2018-07-22T20:39:11.379Z,17.07
2018-07-22T20:41:40.778Z,17.13
2018-07-22T20:44:10.405Z,17.17
2018-07-22T20:46:38.737Z,17.13
2018-07-22T20:49:07.147Z,16.17
2018-07-22T20:51:35.757Z,17.73
2018-07-22T20:54:04.170Z,17.90
2018-07-22T20:56:32.565Z,18.37
2018-07-22T20:59:00.955Z,17.23
2018-07-22T21:01:29.705Z,18.40
2018-07-22T21:03:58.209Z,25.33
2018-07-22T21:06:26.659Z,18.33
2018-07-22T21:08:55.474Z,18.67
2018-07-22T21:11:24.841Z,18.57
2018-07-22T21:13:53.184Z,18.60
2018-07-22T21:16:21.645Z,20.17
2018-07-22T21:18:50.089Z,18.70
2018-07-22T21:21:18.469Z,19.77
2018-07-22T21:23:46.953Z,20.03
2018-07-22T21:26:15.314Z,20.73
2018-07-22T21:28:43.824Z,19.50
2018-07-22T21:31:12.228Z,19.90
2018-07-22T21:33:40.603Z,20.07
2018-07-22T21:36:08.967Z,20.17
2018-07-22T21:38:37.362Z,20.00
2018-07-22T21:41:05.802Z,19.87
2018-07-22T21:43:34.156Z,19.97
2018-07-22T21:46:02.529Z,20.00
2018-07-22T21:48:30.865Z,20.17
2018-07-22T21:50:59.305Z,19.77
2018-07-22T21:53:27.719Z,19.83
2018-07-22T21:55:56.071Z,20.70
2018-07-22T21:58:24.505Z,22.07
2018-07-22T22:00:52.956Z,20.90
2018-07-22T22:03:21.413Z,20.37
2018-07-22T22:05:49.902Z,20.80
2018-07-22T22:08:18.333Z,20.80
2018-07-22T22:10:46.733Z,20.20
2018-07-22T22:13:15.208Z,21.60
2018-07-22T22:15:43.683Z,20.60
2018-07-22T22:18:12.191Z,21.33
2018-07-22T22:20:41.160Z,20.97
2018-07-22T22:23:09.583Z,21.80
2018-07-22T22:25:38.050Z,21.50
2018-07-22T22:28:06.551Z,20.30
2018-07-22T22:30:35.014Z,20.27
2018-07-22T22:33:03.431Z,20.57
2018-07-22T22:35:31.935Z,21.40
2018-07-22T22:38:00.353Z,21.20
2018-07-22T22:40:28.793Z,21.73
2018-07-22T22:42:57.135Z,20.93
2018-07-22T22:45:25.596Z,21.17
2018-07-22T22:47:53.948Z,22.00
2018-07-22T22:50:22.371Z,21.03
2018-07-22T22:52:50.769Z,19.80
2018-07-22T22:55:19.117Z,20.90
2018-07-22T22:57:58.896Z,20.40
2018-07-22T23:00:27.314Z,19.70
2018-07-22T23:02:55.674Z,21.40
2018-07-22T23:05:24.342Z,20.40
2018-07-22T23:07:52.699Z,20.40
2018-07-22T23:10:21.126Z,20.30
2018-07-22T23:12:49.437Z,19.10
2018-07-22T23:15:17.869Z,19.80
2018-07-22T23:17:46.205Z,20.63
2018-07-22T23:20:14.683Z,20.67
2018-07-22T23:22:43.026Z,20.37
2018-07-22T23:25:11.438Z,22.03
2018-07-22T23:27:39.823Z,19.70
2018-07-22T23:30:08.244Z,20.20
2018-07-22T23:32:36.665Z,21.00
2018-07-22T23:35:05.074Z,20.60
2018-07-22T23:37:33.397Z,20.30
2018-07-22T23:40:01.867Z,22.23
2018-07-22T23:42:30.271Z,20.47
2018-07-22T23:44:58.715Z,21.03
2018-07-22T23:47:27.123Z,21.90
2018-07-22T23:49:55.460Z,22.30
2018-07-22T23:52:23.822Z,22.17
2018-07-22T23:54:52.285Z,21.13
2018-07-22T23:57:20.687Z,22.60
2018-07-22T23:59:49.171Z,21.70
